sensor_id;sensor_type;location;lat;lon;timestamp;pressure;altitude;pressure_sealevel;temperature;humidity
3844;BME280;1937;51.444;6.484;2022-08-25T00:02:07;69229.72;;;22.45;72.13
3844;BME280;1937;51.444;6.484;2022-08-25T00:04:38;69224.09;;;22.38;71.65
3844;BME280;1937;51.444;6.484;2022-08-25T00:07:07;69163.03;;;22.13;72.00
3844;BME280;1937;51.444;6.484;2022-08-25T00:09:38;69097.53;;;21.97;72.44
3844;BME280;1937;51.444;6.484;2022-08-25T00:12:07;69096.03;;;21.78;72.90
3844;BME280;1937;51.444;6.484;2022-08-25T00:14:39;69107.19;;;21.83;72.03
3844;BME280;1937;51.444;6.484;2022-08-25T00:17:09;69126.84;;;21.93;71.27
3844;BME280;1937;51.444;6.484;2022-08-25T00:19:38;69092.81;;;21.77;71.65
3844;BME280;1937;51.444;6.484;2022-08-25T00:22:08;69131.31;;;21.79;72.25
3844;BME280;1937;51.444;6.484;2022-08-25T00:24:38;69059.59;;;21.76;72.96
3844;BME280;1937;51.444;6.484;2022-08-25T00:27:06;69097.84;;;21.63;73.86
3844;BME280;1937;51.444;6.484;2022-08-25T00:29:35;69088.28;;;21.67;74.09
3844;BME280;1937;51.444;6.484;2022-08-25T00:32:04;69112.81;;;21.70;73.69
3844;BME280;1937;51.444;6.484;2022-08-25T00:34:34;69115.50;;;21.74;73.78
3844;BME280;1937;51.444;6.484;2022-08-25T00:37:05;69123.81;;;21.65;74.02
3844;BME280;1937;51.444;6.484;2022-08-25T00:39:35;69129.13;;;21.70;73.88
3844;BME280;1937;51.444;6.484;2022-08-25T00:42:06;69151.59;;;21.74;73.96
3844;BME280;1937;51.444;6.484;2022-08-25T00:44:36;69171.03;;;21.86;73.00
3844;BME280;1937;51.444;6.484;2022-08-25T00:47:05;69160.88;;;21.88;72.97
3844;BME280;1937;51.444;6.484;2022-08-25T00:49:38;69136.94;;;21.86;73.10
3844;BME280;1937;51.444;6.484;2022-08-25T00:52:10;69173.06;;;21.85;73.14
3844;BME280;1937;51.444;6.484;2022-08-25T00:54:41;69161.13;;;21.86;73.33
3844;BME280;1937;51.444;6.484;2022-08-25T00:57:17;69187.88;;;21.82;73.36
3844;BME280;1937;51.444;6.484;2022-08-25T00:59:47;69175.94;;;21.83;73.58
3844;BME280;1937;51.444;6.484;2022-08-25T01:02:16;69142.63;;;21.77;73.75
3844;BME280;1937;51.444;6.484;2022-08-25T01:04:45;69146.34;;;21.74;73.54
3844;BME280;1937;51.444;6.484;2022-08-25T01:07:14;69088.84;;;21.47;74.14
3844;BME280;1937;51.444;6.484;2022-08-25T01:09:45;69104.09;;;21.35;74.16
3844;BME280;1937;51.444;6.484;2022-08-25T01:12:16;69051.88;;;21.29;74.58
3844;BME280;1937;51.444;6.484;2022-08-25T01:14:45;69000.19;;;21.18;75.46
3844;BME280;1937;51.444;6.484;2022-08-25T01:17:17;69032.97;;;21.12;76.09
3844;BME280;1937;51.444;6.484;2022-08-25T01:19:46;69048.09;;;21.12;76.60
3844;BME280;1937;51.444;6.484;2022-08-25T01:22:16;69036.59;;;21.04;76.32
3844;BME280;1937;51.444;6.484;2022-08-25T01:24:49;69052.66;;;21.07;76.80
3844;BME280;1937;51.444;6.484;2022-08-25T01:27:20;69071.50;;;21.03;77.30
3844;BME280;1937;51.444;6.484;2022-08-25T01:29:48;69064.06;;;20.94;77.83
3844;BME280;1937;51.444;6.484;2022-08-25T01:32:17;69038.16;;;20.92;78.04
3844;BME280;1937;51.444;6.484;2022-08-25T01:34:45;69021.53;;;20.89;78.22
3844;BME280;1937;51.444;6.484;2022-08-25T01:37:15;68984.56;;;20.71;78.51
3844;BME280;1937;51.444;6.484;2022-08-25T01:39:45;69011.09;;;20.58;79.56
3844;BME280;1937;51.444;6.484;2022-08-25T01:42:19;68997.84;;;20.64;79.04
3844;BME280;1937;51.444;6.484;2022-08-25T01:44:50;69011.09;;;20.58;79.61
3844;BME280;1937;51.444;6.484;2022-08-25T01:47:19;69038.69;;;20.72;78.96
3844;BME280;1937;51.444;6.484;2022-08-25T01:49:49;69032.88;;;20.72;78.65
3844;BME280;1937;51.444;6.484;2022-08-25T01:52:23;69004.94;;;20.55;79.21
3844;BME280;1937;51.444;6.484;2022-08-25T01:54:52;69019.78;;;20.56;78.61
3844;BME280;1937;51.444;6.484;2022-08-25T01:57:20;68978.69;;;20.50;79.05
3844;BME280;1937;51.444;6.484;2022-08-25T01:59:51;68989.41;;;20.48;79.58
3844;BME280;1937;51.444;6.484;2022-08-25T02:02:19;69009.00;;;20.54;79.27
3844;BME280;1937;51.444;6.484;2022-08-25T02:04:47;69005.63;;;20.44;79.34
3844;BME280;1937;51.444;6.484;2022-08-25T02:07:15;69022.50;;;20.45;79.24
3844;BME280;1937;51.444;6.484;2022-08-25T02:09:45;69001.16;;;20.54;79.22
3844;BME280;1937;51.444;6.484;2022-08-25T02:12:14;69067.75;;;20.55;79.19
3844;BME280;1937;51.444;6.484;2022-08-25T02:14:42;68997.00;;;20.50;79.54
3844;BME280;1937;51.444;6.484;2022-08-25T02:17:10;69061.16;;;20.60;79.31
3844;BME280;1937;51.444;6.484;2022-08-25T02:19:38;69043.34;;;20.56;79.50
3844;BME280;1937;51.444;6.484;2022-08-25T02:22:08;69071.34;;;20.62;79.09
3844;BME280;1937;51.444;6.484;2022-08-25T02:24:36;69081.66;;;20.53;79.53
3844;BME280;1937;51.444;6.484;2022-08-25T02:27:06;69060.13;;;20.53;79.77
3844;BME280;1937;51.444;6.484;2022-08-25T02:29:36;69087.91;;;20.61;79.26
3844;BME280;1937;51.444;6.484;2022-08-25T02:32:06;69082.09;;;20.60;79.27
3844;BME280;1937;51.444;6.484;2022-08-25T02:34:36;69090.88;;;20.63;79.10
3844;BME280;1937;51.444;6.484;2022-08-25T02:37:07;69141.53;;;20.66;79.28
3844;BME280;1937;51.444;6.484;2022-08-25T02:39:35;69109.00;;;20.70;78.94
3844;BME280;1937;51.444;6.484;2022-08-25T02:42:03;69129.72;;;20.72;78.82
3844;BME280;1937;51.444;6.484;2022-08-25T02:44:32;69160.84;;;20.74;78.54
3844;BME280;1937;51.444;6.484;2022-08-25T02:47:00;69097.34;;;20.69;78.06
3844;BME280;1937;51.444;6.484;2022-08-25T02:49:29;69056.59;;;20.34;78.07
3844;BME280;1937;51.444;6.484;2022-08-25T02:51:58;69044.78;;;20.39;77.12
3844;BME280;1937;51.444;6.484;2022-08-25T02:54:27;68992.88;;;20.15;78.13
3844;BME280;1937;51.444;6.484;2022-08-25T02:56:56;68988.09;;;19.91;79.64
3844;BME280;1937;51.444;6.484;2022-08-25T02:59:25;68988.75;;;19.96;79.57
3844;BME280;1937;51.444;6.484;2022-08-25T03:01:55;68948.28;;;19.90;80.20
3844;BME280;1937;51.444;6.484;2022-08-25T03:04:23;68964.47;;;19.86;80.46
3844;BME280;1937;51.444;6.484;2022-08-25T03:06:51;68984.28;;;19.90;80.75
3844;BME280;1937;51.444;6.484;2022-08-25T03:09:20;68995.81;;;19.86;80.84
3844;BME280;1937;51.444;6.484;2022-08-25T03:11:49;68992.72;;;19.90;80.73
3844;BME280;1937;51.444;6.484;2022-08-25T03:14:17;68972.72;;;19.93;80.79
3844;BME280;1937;51.444;6.484;2022-08-25T03:16:46;69035.53;;;19.98;80.35
3844;BME280;1937;51.444;6.484;2022-08-25T03:19:15;69069.56;;;20.14;79.54
3844;BME280;1937;51.444;6.484;2022-08-25T03:21:44;69044.00;;;20.14;78.92
3844;BME280;1937;51.444;6.484;2022-08-25T03:24:13;69059.50;;;20.21;78.53
3844;BME280;1937;51.444;6.484;2022-08-25T03:26:41;69091.25;;;20.23;78.13
3844;BME280;1937;51.444;6.484;2022-08-25T03:29:23;69079.44;;;20.29;77.78
3844;BME280;1937;51.444;6.484;2022-08-25T03:31:53;69066.59;;;20.27;77.33
3844;BME280;1937;51.444;6.484;2022-08-25T03:34:25;69105.09;;;20.33;77.18
3844;BME280;1937;51.444;6.484;2022-08-25T03:36:55;69073.03;;;20.28;77.15
3844;BME280;1937;51.444;6.484;2022-08-25T03:39:27;69066.28;;;20.24;77.24
3844;BME280;1937;51.444;6.484;2022-08-25T03:41:55;69021.72;;;20.20;77.34
3844;BME280;1937;51.444;6.484;2022-08-25T03:44:24;69040.13;;;20.09;77.93
3844;BME280;1937;51.444;6.484;2022-08-25T03:46:53;69020.53;;;20.03;78.37
3844;BME280;1937;51.444;6.484;2022-08-25T03:49:23;69038.94;;;20.08;78.01
3844;BME280;1937;51.444;6.484;2022-08-25T03:51:53;69011.09;;;19.95;78.05
3844;BME280;1937;51.444;6.484;2022-08-25T03:54:24;68997.44;;;19.94;78.42
3844;BME280;1937;51.444;6.484;2022-08-25T03:56:53;69035.97;;;20.05;78.06
3844;BME280;1937;51.444;6.484;2022-08-25T03:59:21;69027.09;;;19.97;78.18
3844;BME280;1937;51.444;6.484;2022-08-25T04:01:50;69011.78;;;20.00;77.41
3844;BME280;1937;51.444;6.484;2022-08-25T04:04:20;68983.03;;;19.84;78.06
3844;BME280;1937;51.444;6.484;2022-08-25T04:06:48;68963.28;;;19.70;79.07
3844;BME280;1937;51.444;6.484;2022-08-25T04:09:17;68917.25;;;19.46;80.01
3844;BME280;1937;51.444;6.484;2022-08-25T04:11:45;68904.44;;;19.44;80.16
3844;BME280;1937;51.444;6.484;2022-08-25T04:14:14;68894.47;;;19.40;80.73
3844;BME280;1937;51.444;6.484;2022-08-25T04:16:43;68945.03;;;19.43;81.04
3844;BME280;1937;51.444;6.484;2022-08-25T04:19:12;68936.84;;;19.40;81.41
3844;BME280;1937;51.444;6.484;2022-08-25T04:21:43;68937.56;;;19.45;81.58
3844;BME280;1937;51.444;6.484;2022-08-25T04:24:13;68986.81;;;19.43;81.91
3844;BME280;1937;51.444;6.484;2022-08-25T04:26:43;69002.25;;;19.45;81.70
3844;BME280;1937;51.444;6.484;2022-08-25T04:29:14;69051.81;;;19.56;81.28
3844;BME280;1937;51.444;6.484;2022-08-25T04:31:45;69095.72;;;19.71;80.58
3844;BME280;1937;51.444;6.484;2022-08-25T04:34:16;69082.81;;;19.80;80.07
3844;BME280;1937;51.444;6.484;2022-08-25T04:36:46;69093.28;;;19.80;79.93
3844;BME280;1937;51.444;6.484;2022-08-25T04:39:17;69096.78;;;19.94;79.54
3844;BME280;1937;51.444;6.484;2022-08-25T04:41:47;69081.84;;;19.88;79.41
3844;BME280;1937;51.444;6.484;2022-08-25T04:44:16;69098.03;;;19.84;79.73
3844;BME280;1937;51.444;6.484;2022-08-25T04:46:46;69073.38;;;19.72;79.47
3844;BME280;1937;51.444;6.484;2022-08-25T04:49:15;69062.19;;;19.78;78.89
3844;BME280;1937;51.444;6.484;2022-08-25T04:51:43;69065.72;;;19.81;78.84
3844;BME280;1937;51.444;6.484;2022-08-25T04:54:16;69111.69;;;19.85;78.58
3844;BME280;1937;51.444;6.484;2022-08-25T04:56:48;69060.25;;;19.83;78.70
3844;BME280;1937;51.444;6.484;2022-08-25T04:59:18;69076.97;;;19.91;78.66
3844;BME280;1937;51.444;6.484;2022-08-25T05:01:46;69115.31;;;19.92;78.88
3844;BME280;1937;51.444;6.484;2022-08-25T05:04:19;69125.53;;;19.94;78.64
3844;BME280;1937;51.444;6.484;2022-08-25T05:06:47;69143.69;;;20.01;78.78
3844;BME280;1937;51.444;6.484;2022-08-25T05:09:17;69132.53;;;19.96;78.88
3844;BME280;1937;51.444;6.484;2022-08-25T05:11:45;69146.94;;;19.90;78.96
3844;BME280;1937;51.444;6.484;2022-08-25T05:14:13;69086.38;;;19.83;79.14
3844;BME280;1937;51.444;6.484;2022-08-25T05:16:44;69095.72;;;19.71;79.68
3844;BME280;1937;51.444;6.484;2022-08-25T05:19:12;69040.84;;;19.71;79.48
3844;BME280;1937;51.444;6.484;2022-08-25T05:21:40;69176.53;;;19.89;79.11
3844;BME280;1937;51.444;6.484;2022-08-25T05:24:10;69141.31;;;19.99;78.85
3844;BME280;1937;51.444;6.484;2022-08-25T05:26:40;69156.34;;;20.10;78.41
3844;BME280;1937;51.444;6.484;2022-08-25T05:29:09;69181.00;;;20.22;77.77
3844;BME280;1937;51.444;6.484;2022-08-25T05:31:37;69207.13;;;20.33;77.22
3844;BME280;1937;51.444;6.484;2022-08-25T05:34:07;69263.19;;;20.45;76.64
3844;BME280;1937;51.444;6.484;2022-08-25T05:36:37;69261.97;;;20.55;76.85
3844;BME280;1937;51.444;6.484;2022-08-25T05:39:09;69306.16;;;20.68;76.66
3844;BME280;1937;51.444;6.484;2022-08-25T05:41:38;69324.94;;;20.75;76.57
3844;BME280;1937;51.444;6.484;2022-08-25T05:44:07;69331.91;;;20.88;76.44
3844;BME280;1937;51.444;6.484;2022-08-25T05:46:36;69420.50;;;21.08;75.27
3844;BME280;1937;51.444;6.484;2022-08-25T05:49:04;69413.41;;;21.29;73.36
3844;BME280;1937;51.444;6.484;2022-08-25T05:51:32;69448.91;;;21.54;71.50
3844;BME280;1937;51.444;6.484;2022-08-25T05:54:01;69471.97;;;21.70;71.54
3844;BME280;1937;51.444;6.484;2022-08-25T05:56:30;69482.00;;;21.62;72.08
3844;BME280;1937;51.444;6.484;2022-08-25T05:59:02;69484.31;;;21.76;71.43
3844;BME280;1937;51.444;6.484;2022-08-25T06:01:32;69559.56;;;22.04;70.26
3844;BME280;1937;51.444;6.484;2022-08-25T06:04:19;69567.28;;;22.11;70.68
3844;BME280;1937;51.444;6.484;2022-08-25T06:06:48;69583.84;;;22.20;70.48
3844;BME280;1937;51.444;6.484;2022-08-25T06:09:20;69629.50;;;22.28;71.15
3844;BME280;1937;51.444;6.484;2022-08-25T06:11:51;69647.53;;;22.52;71.35
3844;BME280;1937;51.444;6.484;2022-08-25T06:14:20;69666.06;;;22.45;72.13
3844;BME280;1937;51.444;6.484;2022-08-25T06:16:51;69710.06;;;22.56;71.52
3844;BME280;1937;51.444;6.484;2022-08-25T06:19:20;69770.44;;;22.67;71.82
3844;BME280;1937;51.444;6.484;2022-08-25T06:21:51;69741.66;;;22.72;72.31
3844;BME280;1937;51.444;6.484;2022-08-25T06:24:21;69827.47;;;22.84;72.63
3844;BME280;1937;51.444;6.484;2022-08-25T06:26:49;69871.63;;;23.00;71.59
3844;BME280;1937;51.444;6.484;2022-08-25T06:29:18;69810.53;;;22.83;73.06
3844;BME280;1937;51.444;6.484;2022-08-25T06:31:48;69844.78;;;22.88;73.00
3844;BME280;1937;51.444;6.484;2022-08-25T06:34:18;69818.28;;;22.90;73.29
3844;BME280;1937;51.444;6.484;2022-08-25T06:36:46;69914.22;;;23.22;71.42
3844;BME280;1937;51.444;6.484;2022-08-25T06:39:16;69913.53;;;23.17;72.58
3844;BME280;1937;51.444;6.484;2022-08-25T06:41:44;69980.69;;;23.50;69.87
3844;BME280;1937;51.444;6.484;2022-08-25T06:44:12;70036.94;;;23.68;69.13
3844;BME280;1937;51.444;6.484;2022-08-25T06:46:41;70033.84;;;23.73;69.39
3844;BME280;1937;51.444;6.484;2022-08-25T06:49:09;70048.41;;;23.94;67.34
3844;BME280;1937;51.444;6.484;2022-08-25T06:51:39;70129.97;;;24.16;67.80
3844;BME280;1937;51.444;6.484;2022-08-25T06:54:10;70177.38;;;24.38;65.17
3844;BME280;1937;51.444;6.484;2022-08-25T06:56:40;70202.63;;;24.53;64.29
3844;BME280;1937;51.444;6.484;2022-08-25T06:59:11;70245.97;;;24.65;65.16
3844;BME280;1937;51.444;6.484;2022-08-25T07:01:39;70167.06;;;24.59;63.60
3844;BME280;1937;51.444;6.484;2022-08-25T07:04:08;70216.97;;;24.76;62.64
3844;BME280;1937;51.444;6.484;2022-08-25T07:06:37;70208.09;;;24.84;62.08
3844;BME280;1937;51.444;6.484;2022-08-25T07:09:10;70278.91;;;25.04;62.11
3844;BME280;1937;51.444;6.484;2022-08-25T07:11:40;70274.47;;;25.14;61.77
3844;BME280;1937;51.444;6.484;2022-08-25T07:14:11;70242.13;;;25.09;60.47
3844;BME280;1937;51.444;6.484;2022-08-25T07:16:39;70220.06;;;25.06;59.62
3844;BME280;1937;51.444;6.484;2022-08-25T07:19:09;70354.78;;;25.37;60.18
3844;BME280;1937;51.444;6.484;2022-08-25T07:21:39;70306.56;;;25.43;57.92
3844;BME280;1937;51.444;6.484;2022-08-25T07:24:12;70176.66;;;25.16;58.08
3844;BME280;1937;51.444;6.484;2022-08-25T07:26:42;70219.22;;;25.18;59.99
3844;BME280;1937;51.444;6.484;2022-08-25T07:29:16;70360.16;;;25.64;57.86
3844;BME280;1937;51.444;6.484;2022-08-25T07:31:46;70340.84;;;25.54;58.89
3844;BME280;1937;51.444;6.484;2022-08-25T07:34:14;70316.63;;;25.58;58.87
3844;BME280;1937;51.444;6.484;2022-08-25T07:37:01;70398.53;;;25.85;58.63
3844;BME280;1937;51.444;6.484;2022-08-25T07:39:33;70459.22;;;26.07;57.41
3844;BME280;1937;51.444;6.484;2022-08-25T07:42:02;70528.16;;;26.28;56.45
3844;BME280;1937;51.444;6.484;2022-08-25T07:44:31;70611.84;;;26.63;56.01
3844;BME280;1937;51.444;6.484;2022-08-25T07:46:59;70660.03;;;26.74;54.92
3844;BME280;1937;51.444;6.484;2022-08-25T07:49:29;70832.16;;;27.23;53.59
3844;BME280;1937;51.444;6.484;2022-08-25T07:51:57;71100.91;;;27.98;51.88
3844;BME280;1937;51.444;6.484;2022-08-25T07:54:25;71253.06;;;28.52;50.79
3844;BME280;1937;51.444;6.484;2022-08-25T07:56:55;71371.50;;;28.96;49.45
3844;BME280;1937;51.444;6.484;2022-08-25T07:59:23;71410.59;;;29.19;49.45
3844;BME280;1937;51.444;6.484;2022-08-25T08:01:52;71563.59;;;29.52;48.69
3844;BME280;1937;51.444;6.484;2022-08-25T08:04:20;71489.34;;;29.45;48.64
3844;BME280;1937;51.444;6.484;2022-08-25T08:06:48;71508.69;;;29.50;49.09
3844;BME280;1937;51.444;6.484;2022-08-25T08:09:17;71288.06;;;29.06;48.87
3844;BME280;1937;51.444;6.484;2022-08-25T08:11:45;71435.44;;;29.40;48.81
3844;BME280;1937;51.444;6.484;2022-08-25T08:14:14;71550.63;;;29.79;46.95
3844;BME280;1937;51.444;6.484;2022-08-25T08:16:43;71549.69;;;29.87;46.09
3844;BME280;1937;51.444;6.484;2022-08-25T08:19:11;71578.56;;;30.02;46.13
3844;BME280;1937;51.444;6.484;2022-08-25T08:21:40;71868.31;;;30.75;45.07
3844;BME280;1937;51.444;6.484;2022-08-25T08:24:10;71876.19;;;30.81;43.83
3844;BME280;1937;51.444;6.484;2022-08-25T08:26:38;71607.91;;;30.42;43.46
3844;BME280;1937;51.444;6.484;2022-08-25T08:29:06;71714.88;;;30.49;45.22
3844;BME280;1937;51.444;6.484;2022-08-25T08:31:36;71639.97;;;30.46;44.58
3844;BME280;1937;51.444;6.484;2022-08-25T08:34:04;71922.06;;;31.06;43.93
3844;BME280;1937;51.444;6.484;2022-08-25T08:36:33;71870.69;;;31.01;44.08
3844;BME280;1937;51.444;6.484;2022-08-25T08:39:02;71988.38;;;31.33;43.07
3844;BME280;1937;51.444;6.484;2022-08-25T08:44:45;71765.00;;;30.82;43.83
3844;BME280;1937;51.444;6.484;2022-08-25T08:47:22;71804.72;;;31.02;43.67
3844;BME280;1937;51.444;6.484;2022-08-25T08:49:58;72048.69;;;31.47;43.27
3844;BME280;1937;51.444;6.484;2022-08-25T08:52:36;71831.28;;;31.08;43.82
3844;BME280;1937;51.444;6.484;2022-08-25T08:55:13;71995.03;;;31.45;43.13
3844;BME280;1937;51.444;6.484;2022-08-25T08:57:49;72044.75;;;31.53;43.19
3844;BME280;1937;51.444;6.484;2022-08-25T09:00:18;72279.72;;;32.10;42.43
3844;BME280;1937;51.444;6.484;2022-08-25T09:02:53;72124.72;;;31.77;41.87
3844;BME280;1937;51.444;6.484;2022-08-25T09:05:27;72238.16;;;32.00;41.79
3844;BME280;1937;51.444;6.484;2022-08-25T09:07:58;72302.81;;;32.25;40.96
3844;BME280;1937;51.444;6.484;2022-08-25T09:10:46;72342.97;;;32.36;39.81
3844;BME280;1937;51.444;6.484;2022-08-25T09:13:23;72293.53;;;32.31;39.94
3844;BME280;1937;51.444;6.484;2022-08-25T09:16:00;72215.28;;;32.15;40.21
3844;BME280;1937;51.444;6.484;2022-08-25T09:18:58;72347.03;;;32.42;40.21
3844;BME280;1937;51.444;6.484;2022-08-25T09:21:34;72588.88;;;32.96;40.04
3844;BME280;1937;51.444;6.484;2022-08-25T09:24:12;72185.69;;;32.17;40.34
3844;BME280;1937;51.444;6.484;2022-08-25T09:26:52;72239.00;;;32.23;41.18
3844;BME280;1937;51.444;6.484;2022-08-25T09:29:27;72405.44;;;32.57;40.06
3844;BME280;1937;51.444;6.484;2022-08-25T09:31:59;72339.59;;;32.49;40.27
3844;BME280;1937;51.444;6.484;2022-08-25T09:34:34;72468.16;;;32.76;40.02
3844;BME280;1937;51.444;6.484;2022-08-25T09:37:03;72552.09;;;32.97;39.58
3844;BME280;1937;51.444;6.484;2022-08-25T09:39:33;72694.41;;;33.28;39.26
3844;BME280;1937;51.444;6.484;2022-08-25T09:42:05;72796.13;;;33.46;38.92
3844;BME280;1937;51.444;6.484;2022-08-25T09:44:38;72580.34;;;33.13;38.96
3844;BME280;1937;51.444;6.484;2022-08-25T09:47:19;72886.94;;;33.65;38.63
3844;BME280;1937;51.444;6.484;2022-08-25T09:49:55;73144.00;;;34.16;37.73
3844;BME280;1937;51.444;6.484;2022-08-25T09:52:36;72919.84;;;33.84;38.02
3844;BME280;1937;51.444;6.484;2022-08-25T09:55:23;72939.38;;;33.89;37.46
3844;BME280;1937;51.444;6.484;2022-08-25T09:57:54;72741.59;;;33.49;38.45
3844;BME280;1937;51.444;6.484;2022-08-25T10:00:26;73118.25;;;34.26;37.42
3844;BME280;1937;51.444;6.484;2022-08-25T10:03:04;73125.69;;;34.25;38.66
3844;BME280;1937;51.444;6.484;2022-08-25T10:05:37;72851.56;;;33.78;37.70
3844;BME280;1937;51.444;6.484;2022-08-25T10:08:12;73131.22;;;34.30;37.67
3844;BME280;1937;51.444;6.484;2022-08-25T10:10:44;73191.38;;;34.44;37.16
3844;BME280;1937;51.444;6.484;2022-08-25T10:13:20;73056.88;;;34.17;36.69
3844;BME280;1937;51.444;6.484;2022-08-25T10:16:02;72978.88;;;34.01;36.06
3844;BME280;1937;51.444;6.484;2022-08-25T10:18:32;72837.94;;;33.87;37.24
3844;BME280;1937;51.444;6.484;2022-08-25T10:21:14;72758.97;;;33.75;37.22
3844;BME280;1937;51.444;6.484;2022-08-25T10:23:46;73067.19;;;34.34;36.46
3844;BME280;1937;51.444;6.484;2022-08-25T10:26:22;72955.63;;;34.00;37.60
3844;BME280;1937;51.444;6.484;2022-08-25T10:29:03;73337.94;;;34.98;35.37
3844;BME280;1937;51.444;6.484;2022-08-25T10:31:36;73036.06;;;34.37;36.83
3844;BME280;1937;51.444;6.484;2022-08-25T10:34:16;72888.50;;;34.02;35.71
3844;BME280;1937;51.444;6.484;2022-08-25T10:36:55;73074.56;;;34.47;35.08
3844;BME280;1937;51.444;6.484;2022-08-25T10:39:37;73412.84;;;35.20;34.83
3844;BME280;1937;51.444;6.484;2022-08-25T10:42:25;73225.78;;;34.68;34.74
3844;BME280;1937;51.444;6.484;2022-08-25T10:45:06;72988.50;;;34.31;35.56
3844;BME280;1937;51.444;6.484;2022-08-25T10:48:06;73131.59;;;34.59;34.76
3844;BME280;1937;51.444;6.484;2022-08-25T10:50:42;73289.69;;;34.91;34.80
3844;BME280;1937;51.444;6.484;2022-08-25T10:53:27;73100.94;;;34.51;35.45
3844;BME280;1937;51.444;6.484;2022-08-25T10:56:06;72935.78;;;34.30;35.16
3844;BME280;1937;51.444;6.484;2022-08-25T10:59:02;72957.41;;;34.28;35.23
3844;BME280;1937;51.444;6.484;2022-08-25T11:01:43;72822.44;;;34.00;36.33
3844;BME280;1937;51.444;6.484;2022-08-25T11:04:18;72883.94;;;34.13;36.18
3844;BME280;1937;51.444;6.484;2022-08-25T11:06:51;72874.66;;;34.12;35.21
3844;BME280;1937;51.444;6.484;2022-08-25T11:09:26;72779.00;;;34.00;35.49
3844;BME280;1937;51.444;6.484;2022-08-25T11:11:59;72769.97;;;33.97;35.02
3844;BME280;1937;51.444;6.484;2022-08-25T11:14:33;72950.59;;;34.35;33.74
3844;BME280;1937;51.444;6.484;2022-08-25T11:17:09;72986.38;;;34.51;34.36
3844;BME280;1937;51.444;6.484;2022-08-25T11:19:40;73053.91;;;34.59;34.31
3844;BME280;1937;51.444;6.484;2022-08-25T11:22:16;72393.28;;;33.13;36.77
3844;BME280;1937;51.444;6.484;2022-08-25T11:24:54;72481.97;;;33.34;37.39
3844;BME280;1937;51.444;6.484;2022-08-25T11:27:30;72854.06;;;34.18;35.54
3844;BME280;1937;51.444;6.484;2022-08-25T11:30:05;72870.97;;;34.09;34.88
3844;BME280;1937;51.444;6.484;2022-08-25T11:32:36;72989.91;;;34.37;35.73
3844;BME280;1937;51.444;6.484;2022-08-25T11:35:07;73320.41;;;35.12;33.78
3844;BME280;1937;51.444;6.484;2022-08-25T11:37:42;73213.00;;;34.88;34.18
3844;BME280;1937;51.444;6.484;2022-08-25T11:40:25;73415.72;;;35.31;33.55
3844;BME280;1937;51.444;6.484;2022-08-25T11:43:12;73725.88;;;35.83;33.52
3844;BME280;1937;51.444;6.484;2022-08-25T11:45:50;73801.16;;;36.02;32.03
3844;BME280;1937;51.444;6.484;2022-08-25T11:48:27;73797.53;;;36.19;32.02
3844;BME280;1937;51.444;6.484;2022-08-25T11:51:03;73826.03;;;36.16;31.70
3844;BME280;1937;51.444;6.484;2022-08-25T11:53:33;73507.00;;;35.64;33.16
3844;BME280;1937;51.444;6.484;2022-08-25T11:56:07;73538.75;;;35.61;32.84
3844;BME280;1937;51.444;6.484;2022-08-25T11:58:40;73534.84;;;35.67;31.02
3844;BME280;1937;51.444;6.484;2022-08-25T12:01:13;73167.00;;;34.99;32.68
3844;BME280;1937;51.444;6.484;2022-08-25T12:04:15;73487.13;;;35.48;32.95
3844;BME280;1937;51.444;6.484;2022-08-25T12:07:18;73678.44;;;36.01;31.27
3844;BME280;1937;51.444;6.484;2022-08-25T12:10:12;74054.75;;;36.69;30.33
3844;BME280;1937;51.444;6.484;2022-08-25T12:13:24;73640.03;;;35.96;30.51
3844;BME280;1937;51.444;6.484;2022-08-25T12:15:57;73709.69;;;36.11;31.02
3844;BME280;1937;51.444;6.484;2022-08-25T12:18:42;73662.53;;;35.92;30.66
3844;BME280;1937;51.444;6.484;2022-08-25T12:21:14;73558.63;;;35.78;30.95
3844;BME280;1937;51.444;6.484;2022-08-25T12:23:44;73709.69;;;36.18;29.69
3844;BME280;1937;51.444;6.484;2022-08-25T12:26:38;73549.13;;;35.79;30.18
3844;BME280;1937;51.444;6.484;2022-08-25T12:29:13;73401.50;;;35.59;29.71
3844;BME280;1937;51.444;6.484;2022-08-25T12:32:04;73730.13;;;36.15;31.26
3844;BME280;1937;51.444;6.484;2022-08-25T12:34:46;74087.34;;;36.86;29.00
3844;BME280;1937;51.444;6.484;2022-08-25T12:37:22;73336.06;;;35.56;29.28
3844;BME280;1937;51.444;6.484;2022-08-25T12:39:58;73667.38;;;36.25;27.44
3844;BME280;1937;51.444;6.484;2022-08-25T12:42:34;73931.03;;;36.62;27.83
3844;BME280;1937;51.444;6.484;2022-08-25T12:45:12;73816.22;;;36.47;26.60
3844;BME280;1937;51.444;6.484;2022-08-25T12:47:42;73842.53;;;36.60;27.25
3844;BME280;1937;51.444;6.484;2022-08-25T12:50:29;74155.75;;;37.09;28.23
3844;BME280;1937;51.444;6.484;2022-08-25T12:53:07;73942.28;;;36.78;27.18
3844;BME280;1937;51.444;6.484;2022-08-25T12:55:37;74143.00;;;37.16;27.70
3844;BME280;1937;51.444;6.484;2022-08-25T12:58:07;74039.59;;;36.94;26.92
3844;BME280;1937;51.444;6.484;2022-08-25T13:00:48;74103.47;;;37.15;26.65
3844;BME280;1937;51.444;6.484;2022-08-25T13:03:35;74417.06;;;37.57;26.04
3844;BME280;1937;51.444;6.484;2022-08-25T13:06:20;74066.88;;;36.89;28.15
3844;BME280;1937;51.444;6.484;2022-08-25T13:09:17;74104.59;;;37.03;28.45
3844;BME280;1937;51.444;6.484;2022-08-25T13:11:54;73709.31;;;36.35;28.19
3844;BME280;1937;51.444;6.484;2022-08-25T13:14:32;74131.38;;;37.11;27.33
3844;BME280;1937;51.444;6.484;2022-08-25T13:17:04;74316.72;;;37.50;26.67
3844;BME280;1937;51.444;6.484;2022-08-25T13:19:32;74498.41;;;37.73;27.70
3844;BME280;1937;51.444;6.484;2022-08-25T13:22:02;74121.28;;;37.18;27.66
3844;BME280;1937;51.444;6.484;2022-08-25T13:24:35;74369.41;;;37.56;27.39
3844;BME280;1937;51.444;6.484;2022-08-25T13:29:55;74510.28;;;37.83;27.61
3844;BME280;1937;51.444;6.484;2022-08-25T13:32:29;74019.75;;;36.97;27.14
3844;BME280;1937;51.444;6.484;2022-08-25T13:35:10;73842.00;;;36.79;25.29
3844;BME280;1937;51.444;6.484;2022-08-25T13:37:38;73542.78;;;36.22;25.50
3844;BME280;1937;51.444;6.484;2022-08-25T13:40:10;73554.97;;;36.27;26.29
3844;BME280;1937;51.444;6.484;2022-08-25T13:42:44;73753.19;;;36.53;27.08
3844;BME280;1937;51.444;6.484;2022-08-25T13:45:16;73347.19;;;35.85;26.56
3844;BME280;1937;51.444;6.484;2022-08-25T13:47:47;73758.81;;;36.58;26.96
3844;BME280;1937;51.444;6.484;2022-08-25T13:50:31;73705.84;;;36.49;27.53
3844;BME280;1937;51.444;6.484;2022-08-25T13:53:05;73380.41;;;35.94;27.61
3844;BME280;1937;51.444;6.484;2022-08-25T13:55:37;72668.16;;;34.41;30.43
3844;BME280;1937;51.444;6.484;2022-08-25T13:58:14;73026.53;;;35.15;29.28